Time;durP1;ratioP1;P1;durP2;ratioP2;P2;SDS_P1;SDS_P2;PMS_P1;PMS_P2;Temp;Humidity;BMP_temperature;BMP_pressure;BME280_temperature;BME280_humidity;BME280_pressure;Samples;Min_cycle;Max_cycle;Signal;HPM_P1;HPM_P2
2023/03/05 00:00:15;;;;;;;4.63;1.13;;;3.50;99.90;;;;;;4964852;28;20064;-87
2023/03/05 00:02:41;;;;;;;4.03;1.48;;;3.40;99.90;;;;;;4961628;28;20099;-87
2023/03/05 00:05:07;;;;;;;3.90;1.30;;;3.40;99.90;;;;;;5057081;28;20046;-87
2023/03/05 00:07:34;;;;;;;4.03;1.55;;;3.50;99.90;;;;;;4961395;28;20358;-87
2023/03/05 00:10:01;;;;;;;4.22;1.48;;;3.50;99.90;;;;;;4989043;28;20074;-87
2023/03/05 00:12:27;;;;;;;5.00;1.40;;;3.40;99.90;;;;;;4965764;28;20548;-87
2023/03/05 00:14:53;;;;;;;6.68;1.40;;;3.50;99.90;;;;;;4975712;28;20042;-86
2023/03/05 00:17:19;;;;;;;6.43;1.20;;;3.40;99.90;;;;;;4975774;28;20444;-87
2023/03/05 00:19:44;;;;;;;5.45;1.60;;;3.40;99.90;;;;;;4979704;28;20046;-87
2023/03/05 00:22:10;;;;;;;7.28;1.50;;;3.50;99.90;;;;;;4969492;28;20089;-87
2023/03/05 00:24:36;;;;;;;5.18;1.48;;;3.50;99.90;;;;;;4990941;28;20048;-86
2023/03/05 00:27:01;;;;;;;8.02;1.45;;;3.60;99.90;;;;;;4979962;28;20057;-87
2023/03/05 00:29:28;;;;;;;4.13;1.20;;;3.50;99.90;;;;;;4983480;28;20505;-88
2023/03/05 00:31:54;;;;;;;6.07;1.58;;;3.50;99.90;;;;;;4986705;28;20464;-87
2023/03/05 00:34:24;;;;;;;7.40;1.40;;;3.40;99.90;;;;;;4983431;28;20056;-87
2023/03/05 00:36:51;;;;;;;6.15;1.80;;;3.50;99.90;;;;;;4979613;28;20114;-87
2023/03/05 00:39:18;;;;;;;4.50;1.30;;;3.60;99.90;;;;;;4976232;28;20163;-87
2023/03/05 00:41:44;;;;;;;5.60;1.55;;;3.40;99.90;;;;;;4981019;28;20038;-87
2023/03/05 00:44:10;;;;;;;8.35;1.20;;;3.40;99.90;;;;;;4986056;28;20049;-87
2023/03/05 00:46:39;;;;;;;6.05;1.40;;;3.40;99.90;;;;;;4958701;28;20046;-87
2023/03/05 00:49:05;;;;;;;9.00;1.88;;;3.40;99.90;;;;;;4974510;28;20059;-87
2023/03/05 00:51:31;;;;;;;4.53;1.60;;;3.50;99.90;;;;;;4976256;28;20095;-86
2023/03/05 00:53:57;;;;;;;6.97;1.95;;;3.40;99.90;;;;;;4981416;28;20508;-87
2023/03/05 00:56:23;;;;;;;3.92;1.50;;;3.40;99.90;;;;;;4969236;28;20493;-87
2023/03/05 00:58:48;;;;;;;4.03;1.55;;;3.50;99.90;;;;;;4988712;28;20122;-86
2023/03/05 01:01:14;;;;;;;4.82;1.10;;;3.40;99.90;;;;;;4979375;28;20145;-87
2023/03/05 01:03:43;;;;;;;4.57;1.20;;;3.50;99.90;;;;;;4994962;28;20515;-87
2023/03/05 01:06:12;;;;;;;4.55;1.50;;;3.50;99.90;;;;;;4961269;28;20038;-87
2023/03/05 01:08:38;;;;;;;5.85;1.33;;;3.50;99.90;;;;;;4988755;28;20061;-87
2023/03/05 01:11:05;;;;;;;4.25;1.40;;;3.40;99.90;;;;;;4991899;28;20104;-87
2023/03/05 01:13:32;;;;;;;4.93;1.33;;;3.40;99.90;;;;;;5008016;28;20053;-87
2023/03/05 01:15:57;;;;;;;5.90;1.70;;;3.30;99.90;;;;;;4973703;28;20058;-86
2023/03/05 01:18:23;;;;;;;5.35;1.33;;;3.40;99.90;;;;;;4991256;28;20881;-88
2023/03/05 01:20:49;;;;;;;3.97;1.33;;;3.40;99.90;;;;;;5059264;28;20030;-88
2023/03/05 01:23:14;;;;;;;3.15;1.50;;;3.30;99.90;;;;;;5006540;28;20074;-87
2023/03/05 01:25:40;;;;;;;5.00;1.30;;;3.30;99.90;;;;;;4977615;28;20047;-87
2023/03/05 01:28:06;;;;;;;3.55;1.10;;;3.40;99.90;;;;;;5002566;28;20169;-88
2023/03/05 01:30:33;;;;;;;5.43;1.20;;;3.50;99.90;;;;;;4999492;28;20067;-86
2023/03/05 01:32:58;;;;;;;6.75;1.48;;;3.30;99.90;;;;;;5008568;28;20031;-87
2023/03/05 01:35:27;;;;;;;11.15;1.58;;;3.30;99.90;;;;;;5001429;28;20034;-87
2023/03/05 01:37:52;;;;;;;3.85;1.35;;;3.30;99.90;;;;;;5013891;28;20040;-87
2023/03/05 01:40:24;;;;;;;6.15;1.13;;;3.40;99.90;;;;;;5078673;28;20088;-87
2023/03/05 01:43:22;;;;;;;6.80;1.38;;;3.30;99.90;;;;;;5007543;28;20043;-88
2023/03/05 01:46:26;;;;;;;4.60;1.50;;;3.20;99.90;;;;;;4967189;28;20053;-87
2023/03/05 01:49:22;;;;;;;6.55;1.83;;;3.10;99.90;;;;;;4985243;28;20045;-87
2023/03/05 01:52:10;;;;;;;7.07;1.80;;;3.10;99.90;;;;;;4983231;28;20069;-87
2023/03/05 01:54:45;;;;;;;4.72;1.50;;;3.20;99.90;;;;;;5015814;28;20478;-87
2023/03/05 01:57:18;;;;;;;7.00;1.73;;;3.10;99.90;;;;;;5064397;28;20594;-88
2023/03/05 01:59:46;;;;;;;6.65;2.00;;;3.10;99.90;;;;;;4975651;28;20451;-87
2023/03/05 02:02:12;;;;;;;8.40;1.70;;;3.10;99.90;;;;;;4969137;28;20035;-87
2023/03/05 02:05:10;;;;;;;5.93;1.52;;;3.10;99.90;;;;;;4992914;28;20129;-88
2023/03/05 02:07:38;;;;;;;7.15;1.90;;;3.00;99.90;;;;;;4978926;28;20196;-87
2023/03/05 02:10:25;;;;;;;5.05;1.92;;;3.20;99.90;;;;;;4977209;28;20046;-86
2023/03/05 02:12:53;;;;;;;8.20;1.58;;;3.20;99.90;;;;;;4989266;28;20050;-87
2023/03/05 02:15:19;;;;;;;4.45;1.70;;;3.10;99.90;;;;;;5063995;28;20448;-87
2023/03/05 02:17:45;;;;;;;5.53;1.70;;;3.10;99.90;;;;;;5059272;28;20047;-86
2023/03/05 02:20:15;;;;;;;5.93;1.73;;;3.10;99.90;;;;;;4982062;28;20114;-87
2023/03/05 02:22:41;;;;;;;3.80;1.95;;;2.90;99.90;;;;;;5080859;28;20126;-87
2023/03/05 02:25:23;;;;;;;6.88;1.92;;;3.00;99.90;;;;;;4971831;28;20121;-87
2023/03/05 02:28:15;;;;;;;6.40;2.00;;;3.00;99.90;;;;;;4991998;28;20151;-88
2023/03/05 02:30:40;;;;;;;5.90;1.95;;;2.90;99.90;;;;;;4954525;28;20077;-87
2023/03/05 02:33:06;;;;;;;4.65;1.77;;;2.90;99.90;;;;;;4991122;28;20081;-87
2023/03/05 02:35:32;;;;;;;8.13;1.92;;;2.90;99.90;;;;;;5060985;28;20035;-87
2023/03/05 02:37:57;;;;;;;8.70;1.98;;;2.90;99.90;;;;;;4968743;28;20141;-87
2023/03/05 02:40:23;;;;;;;8.07;1.88;;;2.90;99.90;;;;;;4992896;28;20039;-87
2023/03/05 02:42:49;;;;;;;7.63;1.90;;;3.00;99.90;;;;;;4982530;28;20157;-87
2023/03/05 02:45:18;;;;;;;6.47;2.15;;;3.00;99.90;;;;;;4978546;28;20520;-87
2023/03/05 02:47:44;;;;;;;11.48;3.55;;;3.10;99.90;;;;;;4978662;28;20462;-87
2023/03/05 02:50:11;;;;;;;7.28;1.80;;;3.10;99.90;;;;;;4991557;28;20042;-87
2023/03/05 02:52:37;;;;;;;6.78;1.95;;;3.10;99.90;;;;;;4973047;28;20078;-87
2023/03/05 02:55:03;;;;;;;4.07;1.30;;;3.10;99.90;;;;;;4980277;28;20030;-87
2023/03/05 02:57:29;;;;;;;8.43;2.03;;;3.20;99.90;;;;;;4990518;28;20061;-87
2023/03/05 02:59:54;;;;;;;6.95;1.90;;;3.10;99.90;;;;;;4977756;28;20099;-87
2023/03/05 03:02:26;;;;;;;7.75;2.20;;;3.20;99.90;;;;;;5001892;28;20092;-86
2023/03/05 03:04:52;;;;;;;6.82;1.50;;;3.20;99.90;;;;;;5000650;28;20070;-87
2023/03/05 03:07:17;;;;;;;2.83;1.50;;;3.10;99.90;;;;;;4978674;28;20042;-87
2023/03/05 03:09:43;;;;;;;6.45;1.50;;;3.20;99.90;;;;;;5080211;28;20053;-88
2023/03/05 03:12:10;;;;;;;6.88;1.92;;;3.20;99.90;;;;;;5064167;28;20039;-87
2023/03/05 03:14:38;;;;;;;7.70;1.73;;;3.20;99.90;;;;;;4997432;28;20425;-87
2023/03/05 03:17:09;;;;;;;7.40;2.25;;;3.20;99.90;;;;;;4994909;28;20038;-87
2023/03/05 03:19:35;;;;;;;6.13;2.00;;;3.10;99.90;;;;;;5059086;28;20180;-87
2023/03/05 03:22:01;;;;;;;7.47;1.63;;;3.20;99.90;;;;;;4983841;28;20047;-88
2023/03/05 03:24:29;;;;;;;5.28;1.90;;;3.20;99.90;;;;;;4985762;28;20363;-87
2023/03/05 03:26:54;;;;;;;10.02;2.22;;;3.10;99.90;;;;;;4994418;28;20043;-87
2023/03/05 03:29:20;;;;;;;5.43;1.80;;;3.20;99.90;;;;;;4978806;28;20066;-87
2023/03/05 03:31:46;;;;;;;8.02;2.47;;;3.10;99.90;;;;;;5007151;28;20032;-88
2023/03/05 03:34:13;;;;;;;6.75;1.70;;;3.10;99.90;;;;;;4985448;28;20499;-87
2023/03/05 03:36:45;;;;;;;6.50;2.30;;;2.90;99.90;;;;;;4973043;28;20698;-87
2023/03/05 03:39:14;;;;;;;4.90;1.90;;;2.90;99.90;;;;;;5004771;28;20040;-87
2023/03/05 03:41:41;;;;;;;8.30;2.00;;;2.80;99.90;;;;;;4983205;28;20042;-88
2023/03/05 03:44:09;;;;;;;5.50;2.00;;;2.80;99.90;;;;;;4974617;28;20133;-88
2023/03/05 03:46:36;;;;;;;6.93;1.70;;;2.90;99.90;;;;;;4992306;28;20092;-88
2023/03/05 03:49:02;;;;;;;4.63;1.77;;;2.90;99.90;;;;;;5009413;28;20034;-87
2023/03/05 03:51:28;;;;;;;6.28;1.80;;;2.80;99.90;;;;;;5013391;28;20032;-88
2023/03/05 03:53:55;;;;;;;7.80;2.10;;;2.80;99.90;;;;;;4981666;28;20091;-88
2023/03/05 03:56:20;;;;;;;5.70;1.60;;;2.80;99.90;;;;;;4997211;28;20042;-88
2023/03/05 03:58:50;;;;;;;4.38;1.60;;;2.80;99.90;;;;;;4995572;28;20035;-87
2023/03/05 04:01:17;;;;;;;5.05;1.60;;;2.80;99.90;;;;;;4986012;28;20046;-87
2023/03/05 04:03:43;;;;;;;5.60;1.85;;;2.60;99.90;;;;;;5000580;28;20036;-87
2023/03/05 04:06:08;;;;;;;4.82;2.10;;;2.80;99.90;;;;;;4992241;28;20036;-87
2023/03/05 04:08:35;;;;;;;7.30;1.85;;;2.70;99.90;;;;;;4976405;28;20294;-87
2023/03/05 04:11:01;;;;;;;7.60;1.67;;;2.70;99.90;;;;;;4973665;28;20089;-87
2023/03/05 04:13:27;;;;;;;5.55;1.63;;;2.80;99.90;;;;;;5013316;28;20045;-87
2023/03/05 04:15:53;;;;;;;8.85;1.60;;;2.70;99.90;;;;;;4986232;28;20145;-87
2023/03/05 04:18:20;;;;;;;5.68;1.73;;;2.80;99.90;;;;;;5011822;28;20141;-88
2023/03/05 04:20:45;;;;;;;7.75;1.70;;;2.80;99.90;;;;;;4977714;28;20458;-88
2023/03/05 04:23:11;;;;;;;3.97;1.70;;;3.00;99.90;;;;;;4991117;28;20868;-87
2023/03/05 04:25:37;;;;;;;6.03;1.77;;;2.80;99.90;;;;;;4979573;28;20512;-88
2023/03/05 04:28:02;;;;;;;7.38;1.40;;;2.80;99.90;;;;;;4976783;28;20047;-88
2023/03/05 04:30:28;;;;;;;6.70;1.67;;;2.90;99.90;;;;;;5058057;28;20056;-88
2023/03/05 04:32:54;;;;;;;8.20;1.63;;;2.90;99.90;;;;;;4988787;28;20537;-87
2023/03/05 04:35:20;;;;;;;4.90;1.48;;;2.80;99.90;;;;;;4974145;28;20039;-88
2023/03/05 04:37:46;;;;;;;5.13;2.00;;;2.80;99.90;;;;;;5083237;28;20028;-88
2023/03/05 04:40:15;;;;;;;6.60;2.35;;;2.90;99.90;;;;;;4971648;28;20117;-88
2023/03/05 04:42:44;;;;;;;4.47;1.60;;;2.70;99.90;;;;;;4992784;28;20108;-87
2023/03/05 04:45:10;;;;;;;5.07;1.40;;;2.90;99.90;;;;;;4984501;28;20035;-87
2023/03/05 04:47:36;;;;;;;8.30;1.80;;;2.90;99.90;;;;;;4997648;28;20107;-88
2023/03/05 04:50:06;;;;;;;6.18;1.60;;;2.90;99.90;;;;;;4985920;28;20140;-87
2023/03/05 04:52:32;;;;;;;8.55;2.08;;;2.90;99.90;;;;;;4973820;28;20505;-87
2023/03/05 04:54:57;;;;;;;9.05;2.13;;;2.80;99.90;;;;;;4983713;28;20044;-87
2023/03/05 04:57:23;;;;;;;9.52;1.90;;;2.90;99.90;;;;;;4983794;28;20045;-87
2023/03/05 04:59:49;;;;;;;5.25;2.00;;;2.80;99.90;;;;;;4973623;28;20055;-87
2023/03/05 05:02:14;;;;;;;8.00;2.58;;;2.80;99.90;;;;;;4988084;28;20068;-88
2023/03/05 05:04:43;;;;;;;8.20;1.77;;;2.80;99.90;;;;;;4991881;28;20446;-88
2023/03/05 05:07:10;;;;;;;7.10;2.05;;;2.70;99.90;;;;;;4963396;28;20050;-88
2023/03/05 05:09:37;;;;;;;3.92;1.60;;;2.90;99.90;;;;;;4966197;28;20391;-88
2023/03/05 05:12:02;;;;;;;8.00;2.03;;;2.90;99.90;;;;;;4985848;28;20042;-87
2023/03/05 05:14:28;;;;;;;10.40;2.30;;;2.80;99.90;;;;;;4990300;28;20045;-87
2023/03/05 05:16:54;;;;;;;8.23;1.75;;;2.70;99.90;;;;;;4964015;28;20156;-88
2023/03/05 05:19:19;;;;;;;9.52;1.92;;;2.90;99.90;;;;;;4996625;28;20039;-87
2023/03/05 05:21:45;;;;;;;12.85;3.03;;;3.00;99.90;;;;;;4966954;28;20107;-87
2023/03/05 05:24:11;;;;;;;4.30;1.30;;;2.90;99.90;;;;;;4983169;28;20047;-88
2023/03/05 05:26:36;;;;;;;3.58;1.13;;;2.80;99.90;;;;;;4986344;28;20038;-88
2023/03/05 05:29:02;;;;;;;4.88;0.90;;;2.50;99.90;;;;;;4993449;28;20389;-88
2023/03/05 05:31:28;;;;;;;2.38;0.70;;;2.70;99.90;;;;;;4965484;28;22003;-87
2023/03/05 05:33:53;;;;;;;3.70;1.02;;;2.40;99.90;;;;;;4986763;28;20184;-87
2023/03/05 05:36:21;;;;;;;3.72;0.82;;;2.30;99.90;;;;;;4982571;28;20031;-87
2023/03/05 05:38:47;;;;;;;2.22;0.50;;;2.40;99.90;;;;;;4982270;28;20044;-87
2023/03/05 05:41:15;;;;;;;2.28;0.65;;;2.60;99.90;;;;;;4964967;28;20042;-87
2023/03/05 05:43:41;;;;;;;1.33;0.60;;;2.60;99.90;;;;;;5080960;28;20073;-87
2023/03/05 05:46:11;;;;;;;0.95;0.60;;;2.40;99.90;;;;;;4992182;28;20049;-87
2023/03/05 05:48:37;;;;;;;1.95;0.57;;;2.60;99.90;;;;;;4991713;28;20456;-87
2023/03/05 05:51:08;;;;;;;2.42;0.50;;;2.60;99.90;;;;;;4973293;28;20364;-87
2023/03/05 05:53:34;;;;;;;4.43;0.40;;;2.40;99.90;;;;;;4980539;28;20138;-88
2023/03/05 05:56:02;;;;;;;1.67;0.75;;;2.50;99.90;;;;;;4967005;28;20036;-87
2023/03/05 05:58:28;;;;;;;3.10;0.80;;;2.50;99.90;;;;;;5062099;28;20284;-88
2023/03/05 06:00:53;;;;;;;2.20;0.60;;;2.50;99.90;;;;;;4970345;28;20478;-87
2023/03/05 06:03:19;;;;;;;2.95;0.90;;;2.50;99.90;;;;;;4999996;28;20042;-87
2023/03/05 06:05:46;;;;;;;2.78;0.80;;;2.20;99.90;;;;;;4967044;28;20043;-87
2023/03/05 06:08:15;;;;;;;4.32;0.85;;;2.30;99.90;;;;;;4983738;28;20098;-88
2023/03/05 06:10:41;;;;;;;3.40;0.90;;;2.30;99.90;;;;;;4970470;28;20195;-87
2023/03/05 06:13:06;;;;;;;1.75;0.75;;;2.40;99.90;;;;;;4966494;28;20144;-87
2023/03/05 06:15:32;;;;;;;3.00;1.00;;;2.20;99.90;;;;;;4982206;28;20414;-88
2023/03/05 06:17:58;;;;;;;4.38;1.15;;;2.10;99.90;;;;;;4981379;28;20053;-88
2023/03/05 06:20:27;;;;;;;5.00;1.05;;;2.30;99.90;;;;;;4983494;28;20389;-88
2023/03/05 06:22:55;;;;;;;2.53;0.98;;;2.40;99.90;;;;;;4976491;28;20387;-87
2023/03/05 06:25:21;;;;;;;6.18;1.20;;;2.30;99.90;;;;;;4999428;28;20160;-88
2023/03/05 06:27:47;;;;;;;4.30;1.30;;;2.30;99.90;;;;;;4984325;28;20344;-88
2023/03/05 06:30:15;;;;;;;3.75;1.10;;;2.30;99.90;;;;;;4987994;28;21265;-88
2023/03/05 06:32:41;;;;;;;7.93;1.58;;;2.30;99.90;;;;;;4971798;28;20043;-88
2023/03/05 06:35:07;;;;;;;4.90;2.08;;;2.30;99.90;;;;;;4964046;28;20042;-88
2023/03/05 06:37:33;;;;;;;9.02;1.30;;;2.50;99.90;;;;;;4967071;28;20088;-88
2023/03/05 06:39:59;;;;;;;6.22;1.40;;;2.40;99.90;;;;;;4984741;28;20070;-87
2023/03/05 06:42:25;;;;;;;7.88;1.88;;;2.60;99.90;;;;;;4972931;28;20133;-87
2023/03/05 06:44:50;;;;;;;6.80;1.48;;;2.50;99.90;;;;;;4963549;28;20522;-88
2023/03/05 06:47:16;;;;;;;5.82;1.38;;;2.60;99.90;;;;;;4997748;28;20036;-87
2023/03/05 06:49:42;;;;;;;7.38;1.83;;;2.60;99.90;;;;;;4990993;28;20069;-88
2023/03/05 06:52:09;;;;;;;4.68;1.55;;;2.80;99.90;;;;;;4992306;28;20050;-87
2023/03/05 06:54:39;;;;;;;7.28;2.00;;;2.60;99.90;;;;;;4991287;28;20164;-88
2023/03/05 06:57:04;;;;;;;5.65;1.70;;;2.90;99.90;;;;;;5019602;28;20042;-88
2023/03/05 06:59:30;;;;;;;9.88;2.55;;;2.90;99.90;;;;;;4986075;28;20045;-88
2023/03/05 07:01:56;;;;;;;8.68;3.17;;;2.90;99.90;;;;;;4983061;28;20064;-88
2023/03/05 07:04:23;;;;;;;7.25;2.47;;;2.90;99.90;;;;;;5011246;28;20109;-86
2023/03/05 07:06:48;;;;;;;8.98;2.10;;;3.00;99.90;;;;;;4986023;28;20072;-87
2023/03/05 07:09:17;;;;;;;4.15;2.10;;;2.70;99.90;;;;;;4989490;28;20042;-87
2023/03/05 07:11:43;;;;;;;6.55;1.60;;;3.00;99.90;;;;;;4979398;28;20061;-87
2023/03/05 07:14:08;;;;;;;6.28;2.22;;;3.00;99.90;;;;;;4994753;28;20721;-88
2023/03/05 07:16:34;;;;;;;11.18;2.10;;;2.80;99.90;;;;;;4970317;28;20038;-88
2023/03/05 07:19:03;;;;;;;5.07;1.63;;;3.10;99.90;;;;;;4984447;28;20056;-88
2023/03/05 07:21:31;;;;;;;9.27;2.20;;;2.90;99.90;;;;;;4995045;28;20038;-88
2023/03/05 07:23:59;;;;;;;7.13;1.80;;;3.00;99.90;;;;;;4979386;28;20040;-88
2023/03/05 07:26:26;;;;;;;8.57;1.90;;;3.10;99.90;;;;;;4993157;28;20042;-88
2023/03/05 07:28:52;;;;;;;7.28;1.95;;;3.50;99.90;;;;;;4989007;28;20066;-88
2023/03/05 07:31:20;;;;;;;4.78;1.73;;;3.30;99.90;;;;;;4980555;28;20393;-88
2023/03/05 07:33:47;;;;;;;8.32;1.90;;;3.40;99.90;;;;;;5005340;28;20050;-88
2023/03/05 07:36:18;;;;;;;9.52;2.08;;;3.60;99.90;;;;;;4991335;28;20863;-87
2023/03/05 07:38:44;;;;;;;11.73;1.70;;;3.60;99.90;;;;;;4979611;28;20107;-89
2023/03/05 07:41:18;;;;;;;9.90;2.75;;;3.50;99.90;;;;;;5019443;28;20036;-88
2023/03/05 07:43:49;;;;;;;9.25;2.30;;;3.80;99.90;;;;;;5003734;28;20073;-87
2023/03/05 07:46:17;;;;;;;14.02;2.53;;;3.90;99.90;;;;;;4988792;28;20043;-88
2023/03/05 07:48:43;;;;;;;10.07;2.22;;;3.90;99.90;;;;;;4967161;28;20421;-88
2023/03/05 07:51:16;;;;;;;6.15;1.90;;;4.00;99.90;;;;;;4998607;28;20038;-88
2023/03/05 07:53:42;;;;;;;4.72;1.88;;;4.00;99.90;;;;;;4968498;28;20067;-88
2023/03/05 07:56:09;;;;;;;10.77;2.13;;;4.00;99.90;;;;;;4978277;28;20038;-87
2023/03/05 07:58:35;;;;;;;3.63;1.60;;;4.00;99.90;;;;;;5002352;28;20028;-88
2023/03/05 08:01:00;;;;;;;10.50;1.85;;;4.10;99.90;;;;;;4963686;28;20529;-88
2023/03/05 08:03:26;;;;;;;7.03;2.13;;;4.40;99.90;;;;;;5001189;28;20179;-88
2023/03/05 08:05:52;;;;;;;7.13;2.13;;;4.40;99.90;;;;;;4969721;28;20516;-88
2023/03/05 08:08:17;;;;;;;9.32;1.70;;;4.50;99.90;;;;;;4980604;28;20038;-88
2023/03/05 08:10:43;;;;;;;6.75;1.50;;;4.60;99.90;;;;;;4975267;28;20043;-88
2023/03/05 08:13:09;;;;;;;5.65;1.83;;;4.50;99.90;;;;;;4993733;28;20042;-88
2023/03/05 08:15:37;;;;;;;4.80;1.88;;;4.50;99.90;;;;;;4989303;28;20032;-87
2023/03/05 08:18:03;;;;;;;5.00;1.60;;;4.50;99.90;;;;;;5006688;28;20034;-87
2023/03/05 08:20:29;;;;;;;11.15;1.73;;;4.60;99.90;;;;;;5002383;28;20028;-88
2023/03/05 08:22:54;;;;;;;8.25;1.67;;;4.60;99.90;;;;;;4982597;28;20038;-88
2023/03/05 08:25:20;;;;;;;5.93;2.00;;;4.50;99.90;;;;;;4988763;28;20508;-88
2023/03/05 08:27:47;;;;;;;7.18;1.90;;;4.50;99.90;;;;;;5001637;28;20047;-88
2023/03/05 08:30:20;;;;;;;7.20;1.67;;;4.60;99.90;;;;;;5005096;28;20065;-88
2023/03/05 08:32:49;;;;;;;6.20;1.98;;;4.50;99.90;;;;;;5039891;28;20114;-88
2023/03/05 08:35:14;;;;;;;7.22;2.10;;;4.60;99.90;;;;;;4979656;28;20049;-88
2023/03/05 08:37:43;;;;;;;5.78;1.33;;;4.80;99.90;;;;;;4977150;28;20549;-89
2023/03/05 08:40:10;;;;;;;7.35;1.95;;;4.80;99.90;;;;;;4976268;28;20046;-88
2023/03/05 08:42:36;;;;;;;5.40;1.90;;;4.70;99.90;;;;;;4997259;28;20129;-88
2023/03/05 08:45:01;;;;;;;7.05;1.88;;;4.80;99.90;;;;;;4982126;28;20079;-88
2023/03/05 08:47:27;;;;;;;8.23;1.80;;;5.00;99.90;;;;;;5000253;28;20042;-88
2023/03/05 08:49:54;;;;;;;3.67;1.70;;;4.80;99.90;;;;;;4972748;28;20058;-88
2023/03/05 08:52:23;;;;;;;6.68;1.67;;;5.00;99.90;;;;;;4974857;28;20038;-88
2023/03/05 08:54:49;;;;;;;6.18;1.80;;;4.90;99.90;;;;;;4986033;28;20322;-88
2023/03/05 08:57:15;;;;;;;11.35;2.15;;;5.00;99.90;;;;;;4987100;28;20032;-88
2023/03/05 08:59:41;;;;;;;9.70;1.92;;;5.00;99.90;;;;;;4978379;28;20136;-88
2023/03/05 09:02:08;;;;;;;5.78;1.83;;;5.00;99.90;;;;;;4967101;28;20442;-88
2023/03/05 09:04:34;;;;;;;6.22;1.67;;;5.00;99.90;;;;;;4988319;28;20034;-88
2023/03/05 09:06:59;;;;;;;12.75;1.70;;;5.10;99.90;;;;;;4988259;28;20454;-88
2023/03/05 09:09:25;;;;;;;8.73;1.90;;;5.20;99.90;;;;;;4984585;28;20199;-88
2023/03/05 09:11:51;;;;;;;9.25;2.00;;;5.30;99.90;;;;;;4999315;28;20156;-88
2023/03/05 09:14:17;;;;;;;8.68;1.80;;;5.30;99.90;;;;;;5003616;28;20038;-89
2023/03/05 09:16:43;;;;;;;6.53;1.65;;;5.50;99.90;;;;;;4973283;28;20043;-88
2023/03/05 09:19:11;;;;;;;9.85;1.67;;;5.70;99.90;;;;;;4981624;28;20034;-88
2023/03/05 09:21:37;;;;;;;7.93;2.08;;;5.80;99.90;;;;;;4998944;28;20137;-88
2023/03/05 09:24:03;;;;;;;4.93;1.63;;;5.70;99.90;;;;;;5006103;28;20038;-87
2023/03/05 09:26:29;;;;;;;5.20;1.50;;;5.70;99.90;;;;;;5078361;28;20039;-88
2023/03/05 09:28:54;;;;;;;7.82;1.88;;;5.90;99.90;;;;;;4987409;28;20062;-88
2023/03/05 09:31:21;;;;;;;8.70;1.55;;;5.80;99.90;;;;;;4968428;28;20375;-88
2023/03/05 09:33:48;;;;;;;8.75;1.73;;;5.80;99.90;;;;;;4972994;28;20118;-88
2023/03/05 09:36:20;;;;;;;5.28;1.08;;;5.70;99.90;;;;;;5004336;28;20027;-89
2023/03/05 09:38:46;;;;;;;3.55;0.90;;;4.70;99.90;;;;;;4967122;28;20045;-84
2023/03/05 09:41:16;;;;;;;3.15;1.00;;;4.20;99.90;;;;;;4998644;28;20494;-84
2023/03/05 09:44:03;;;;;;;2.13;0.65;;;4.10;99.90;;;;;;4981452;28;20111;-84
2023/03/05 09:46:42;;;;;;;3.33;0.82;;;4.30;99.90;;;;;;4989886;28;20070;-84
2023/03/05 09:49:50;;;;;;;6.43;1.15;;;4.30;99.90;;;;;;4986120;28;20453;-84
2023/03/05 09:52:34;;;;;;;5.90;0.70;;;4.30;99.90;;;;;;4988279;28;20065;-84
2023/03/05 09:55:01;;;;;;;1.33;0.47;;;4.50;99.90;;;;;;4969874;28;20389;-84
2023/03/05 09:57:37;;;;;;;2.78;0.70;;;4.50;99.90;;;;;;4983979;28;20563;-84
2023/03/05 10:00:20;;;;;;;2.58;0.60;;;4.60;99.90;;;;;;4986722;28;20121;-85
2023/03/05 10:02:54;;;;;;;3.17;0.68;;;4.70;99.90;;;;;;5059675;28;20490;-84
2023/03/05 10:05:44;;;;;;;4.88;1.10;;;4.80;99.90;;;;;;5059231;28;21128;-85
2023/03/05 10:08:12;;;;;;;5.10;0.82;;;4.90;99.90;;;;;;4981042;28;20283;-84
2023/03/05 10:10:49;;;;;;;4.53;0.90;;;5.10;99.90;;;;;;4986538;28;20084;-84
2023/03/05 10:13:37;;;;;;;3.95;0.85;;;5.30;99.90;;;;;;5061070;28;20031;-84
2023/03/05 10:16:40;;;;;;;3.55;0.88;;;5.10;99.90;;;;;;5060169;28;20133;-84
2023/03/05 10:19:33;;;;;;;5.07;1.00;;;5.20;99.90;;;;;;4975958;28;20045;-84
2023/03/05 10:22:29;;;;;;;3.92;0.98;;;5.00;99.90;;;;;;4963927;28;20110;-84
2023/03/05 10:25:22;;;;;;;2.88;0.90;;;5.30;99.90;;;;;;4993828;28;20042;-84
2023/03/05 10:28:22;;;;;;;4.03;1.02;;;5.40;99.90;;;;;;4965523;28;20155;-84
2023/03/05 10:31:06;;;;;;;5.65;1.00;;;5.60;99.90;;;;;;4962843;28;20432;-84
2023/03/05 10:33:42;;;;;;;6.65;1.75;;;6.10;99.90;;;;;;4996469;28;20046;-84
2023/03/05 10:36:28;;;;;;;5.25;1.00;;;6.40;99.90;;;;;;5031177;28;20035;-84
2023/03/05 10:39:22;;;;;;;4.78;0.70;;;6.10;99.90;;;;;;4958146;28;20415;-84
2023/03/05 10:42:09;;;;;;;6.28;1.05;;;6.30;99.90;;;;;;4978499;28;20032;-84
2023/03/05 10:44:48;;;;;;;6.20;1.25;;;6.70;99.90;;;;;;4988685;28;20050;-84
2023/03/05 10:47:35;;;;;;;5.90;1.33;;;6.50;99.90;;;;;;5064578;28;20032;-84
2023/03/05 10:50:01;;;;;;;5.07;1.20;;;6.60;99.90;;;;;;4997202;28;20042;-84
2023/03/05 10:52:45;;;;;;;6.72;1.40;;;6.70;99.90;;;;;;4965263;28;20124;-84
2023/03/05 10:55:16;;;;;;;6.03;1.10;;;6.90;99.90;;;;;;4993225;28;20039;-84
2023/03/05 10:57:42;;;;;;;5.35;1.30;;;7.00;99.90;;;;;;5005281;28;20038;-84
2023/03/05 11:00:21;;;;;;;3.58;1.00;;;7.30;99.90;;;;;;4993597;28;20091;-84
2023/03/05 11:03:01;;;;;;;5.03;1.45;;;7.10;99.90;;;;;;4992975;28;20034;-84
2023/03/05 11:05:42;;;;;;;4.47;1.40;;;6.90;99.90;;;;;;5058009;28;20049;-84
2023/03/05 11:08:32;;;;;;;4.72;1.00;;;6.80;99.90;;;;;;4977379;28;20053;-84
2023/03/05 11:11:20;;;;;;;4.95;1.00;;;6.70;99.90;;;;;;5014355;28;20042;-84
2023/03/05 11:13:53;;;;;;;4.55;0.80;;;7.10;99.90;;;;;;5004087;28;20362;-84
2023/03/05 11:16:22;;;;;;;5.18;1.23;;;7.30;99.90;;;;;;4995852;28;20080;-84
2023/03/05 11:18:48;;;;;;;3.20;1.00;;;7.20;86.30;;;;;;5004946;28;20069;-84
2023/03/05 11:21:28;;;;;;;1.60;0.80;;;6.90;99.90;;;;;;4983471;28;20169;-84
2023/03/05 11:24:18;;;;;;;3.60;0.77;;;7.00;2.50;;;;;;4970620;28;20494;-84
2023/03/05 11:26:52;;;;;;;3.53;1.48;;;7.40;99.90;;;;;;4978207;28;20049;-84
2023/03/05 11:29:33;;;;;;;1.95;0.70;;;7.30;99.90;;;;;;4973062;28;20331;-84
2023/03/05 11:32:21;;;;;;;2.67;0.70;;;7.40;99.90;;;;;;4990132;28;20050;-84
2023/03/05 11:34:47;;;;;;;8.85;1.20;;;7.70;1.00;;;;;;5002269;28;20044;-84
2023/03/05 11:37:28;;;;;;;3.88;0.80;;;7.80;19.00;;;;;;4996156;28;20035;-84
2023/03/05 11:40:21;;;;;;;3.67;0.73;;;7.70;99.90;;;;;;4981379;28;20069;-84
2023/03/05 11:42:57;;;;;;;3.15;0.82;;;7.80;99.90;;;;;;5003430;28;20051;-84
2023/03/05 11:45:25;;;;;;;5.28;1.08;;;8.20;99.90;;;;;;4978577;28;20068;-85
2023/03/05 11:48:18;;;;;;;6.03;1.20;;;7.90;99.90;;;;;;4961359;28;20631;-84
2023/03/05 11:51:00;;;;;;;5.03;1.25;;;7.30;1.00;;;;;;4994468;28;20474;-84
2023/03/05 11:53:30;;;;;;;7.35;1.40;;;6.80;1.00;;;;;;5074394;28;20046;-84
2023/03/05 11:56:26;;;;;;;4.47;0.90;;;6.80;1.00;;;;;;4984708;28;20398;-84
2023/03/05 11:59:19;;;;;;;5.95;1.00;;;7.00;1.00;;;;;;4991838;28;20132;-84
2023/03/05 12:01:54;;;;;;;3.55;1.00;;;7.60;99.90;;;;;;5040011;28;20107;-84
2023/03/05 12:04:21;;;;;;;2.63;0.85;;;8.00;99.90;;;;;;5005449;28;20129;-84
2023/03/05 12:06:57;;;;;;;4.75;1.08;;;8.30;99.90;;;;;;4974025;28;20228;-85
2023/03/05 12:09:48;;;;;;;3.42;0.93;;;8.20;1.00;;;;;;4962398;28;20233;-84
2023/03/05 12:12:36;;;;;;;6.15;0.93;;;8.70;99.90;;;;;;4978807;28;20048;-84
2023/03/05 12:15:09;;;;;;;3.67;1.10;;;8.20;1.00;;;;;;4975782;28;20475;-84
2023/03/05 12:17:44;;;;;;;3.60;0.80;;;7.50;99.90;;;;;;4968645;28;20501;-84
2023/03/05 12:20:16;;;;;;;;;;;7.10;99.90;;;;;;4965618;28;20035;-84
2023/03/05 12:22:43;;;;;;;7.45;0.73;;;7.00;99.90;;;;;;4975257;28;19986;-85
2023/03/05 12:25:31;;;;;;;4.15;0.90;;;6.70;99.90;;;;;;4995362;28;20505;-84
2023/03/05 12:28:00;;;;;;;4.05;1.02;;;6.70;1.00;;;;;;4999457;28;20370;-84
2023/03/05 12:30:41;;;;;;;2.42;0.80;;;6.70;1.00;;;;;;4992272;28;20574;-84
2023/03/05 12:33:31;;;;;;;4.20;0.80;;;6.80;99.90;;;;;;4965551;28;20053;-84
2023/03/05 12:36:33;;;;;;;3.22;0.73;;;6.80;1.00;;;;;;5012069;28;20051;-83
2023/03/05 12:38:59;;;;;;;3.20;0.90;;;7.00;41.90;;;;;;4949962;28;20040;-84
2023/03/05 12:41:33;;;;;;;3.25;1.25;;;7.20;77.30;;;;;;4974066;28;20119;-84
2023/03/05 12:44:04;;;;;;;6.57;1.00;;;7.20;46.00;;;;;;4974312;28;20038;-84
2023/03/05 12:46:38;;;;;;;2.38;0.90;;;7.30;96.40;;;;;;4978076;28;20061;-84
2023/03/05 12:49:20;;;;;;;7.38;0.90;;;7.10;99.90;;;;;;5003641;28;20384;-84
2023/03/05 12:51:47;;;;;;;2.95;0.80;;;7.00;99.90;;;;;;5049882;28;20483;-85
2023/03/05 12:54:34;;;;;;;5.70;1.08;;;6.90;99.90;;;;;;4992143;28;20055;-84
2023/03/05 12:57:03;;;;;;;5.00;1.17;;;6.70;87.90;;;;;;4964941;28;20392;-84
2023/03/05 12:59:57;;;;;;;4.10;1.10;;;6.80;99.90;;;;;;4990084;28;20073;-83
2023/03/05 13:02:33;;;;;;;7.82;1.58;;;6.60;99.90;;;;;;4954745;28;20054;-84
2023/03/05 13:05:25;;;;;;;3.42;0.85;;;6.50;52.00;;;;;;4967393;28;20093;-84
2023/03/05 13:07:51;;;;;;;6.18;0.90;;;6.60;99.90;;;;;;4978236;28;20163;-84
2023/03/05 13:10:26;;;;;;;4.20;1.17;;;6.60;99.90;;;;;;4969998;28;20133;-84
2023/03/05 13:12:54;;;;;;;4.88;1.00;;;6.90;99.90;;;;;;4984274;28;20207;-84
2023/03/05 13:15:22;;;;;;;3.70;1.10;;;7.30;99.90;;;;;;5000226;28;20050;-84